Madison, Tennessee
Current Conditions -  °F | °C
As of 4:53 PM on Wednesday 22 Oct 2014 (Local Time) from KBNA Reporting Station
Clear Clear  
Wind Chill: 62°   Ceiling: Unl
Heat Index: 62°   Visibility: 10mi
Dew Point: 40°   Wind: 10mph
Humidity: 44%   Direction: 30°NNE
Pressure: 30.2"   Gusts: NA
Location:  36.26°N, 86.71°W
Report Text: KBNA 222153Z 03009KT 10SM CLR 17/04 A3020 RMK AO2 SLP224 T01670044
Loading
Personal Weather Stations






























Interactive Weather Map
Tropical Storm Tracking
New forecast layout! Learn more

10-Day Weather Forecast

Advertisements
Track Severe Weather on mobile